Applegate, Michigan
Current Conditions -  °F | °C
As of 10:00 PM on Saturday 25 Oct 2014 (Local Time) from CYZR Reporting Station
Clear Clear  
Wind Chill: 55°   Ceiling: Unl
Heat Index: 55°   Visibility: 9mi
Dew Point: 34°   Wind: 12mph
Humidity: 44%   Direction: 290°WNW
Pressure: 29.74"   Gusts: 20mph
Location:  43.36°N, 82.64°W
Report Text: CYZR 260200Z AUTO 29010G17KT 9SM CLR 13/01 A2974 RMK SLP073 DENSITY ALT 600FT
Loading
Personal Weather Stations






























Interactive Weather Map New forecast layout! Learn more

10-Day Weather Forecast

Advertisements
Track Severe Weather on mobile